Time;durP1;ratioP1;P1;durP2;ratioP2;P2;SDS_P1;SDS_P2;PMS_P1;PMS_P2;Temp;Humidity;BMP_temperature;BMP_pressure;BME280_temperature;BME280_humidity;BME280_pressure;Samples;Min_cycle;Max_cycle;Signal;HPM_P1;HPM_P2
2022/07/07 00:00:37;;;;;;;5.80;4.70;;;;;;;;;;10061369;28;20053;-67
2022/07/07 00:05:31;;;;;;;5.63;4.85;;;;;;;;;;10060332;28;20049;-67
2022/07/07 00:10:25;;;;;;;7.05;4.70;;;;;;;;;;10053742;28;20489;-67
2022/07/07 00:15:19;;;;;;;8.70;4.20;;;;;;;;;;10075950;28;20085;-67
2022/07/07 00:20:14;;;;;;;8.00;4.22;;;;;;;;;;10065110;28;20049;-68
2022/07/07 00:25:09;;;;;;;6.35;4.10;;;;;;;;;;10059004;28;20046;-67
2022/07/07 00:30:06;;;;;;;7.30;4.35;;;;;;;;;;10061223;28;20061;-68
2022/07/07 00:35:01;;;;;;;5.53;5.03;;;;;;;;;;10055321;28;20390;-68
2022/07/07 00:39:55;;;;;;;5.60;4.78;;;;;;;;;;10053952;28;20064;-66
2022/07/07 00:44:50;;;;;;;4.63;4.25;;;;;;;;;;10068353;28;20524;-66
2022/07/07 00:49:43;;;;;;;10.05;6.10;;;;;;;;;;10057933;28;20050;-66
2022/07/07 00:54:37;;;;;;;5.07;4.50;;;;;;;;;;10048787;28;20058;-66
2022/07/07 00:59:33;;;;;;;5.00;4.28;;;;;;;;;;10051239;28;20049;-66
2022/07/07 01:04:26;;;;;;;5.88;4.47;;;;;;;;;;10050621;28;20456;-66
2022/07/07 01:09:20;;;;;;;5.78;4.53;;;;;;;;;;10061242;28;20503;-66
2022/07/07 01:14:14;;;;;;;7.70;4.80;;;;;;;;;;10064615;28;20048;-66
2022/07/07 01:19:08;;;;;;;6.88;4.78;;;;;;;;;;10071907;28;20056;-66
2022/07/07 01:24:02;;;;;;;5.38;4.97;;;;;;;;;;10062768;28;20045;-66
2022/07/07 01:28:56;;;;;;;10.48;4.80;;;;;;;;;;10060664;28;20211;-65
2022/07/07 01:33:50;;;;;;;7.75;4.43;;;;;;;;;;10063270;28;20041;-65
2022/07/07 01:38:45;;;;;;;5.53;5.03;;;;;;;;;;10062759;28;20053;-65
2022/07/07 01:43:38;;;;;;;5.65;4.20;;;;;;;;;;10071519;28;20598;-66
2022/07/07 01:48:32;;;;;;;7.05;4.40;;;;;;;;;;10058620;28;20529;-66
2022/07/07 01:53:26;;;;;;;5.10;4.60;;;;;;;;;;10063774;28;20049;-66
2022/07/07 01:58:20;;;;;;;6.60;4.57;;;;;;;;;;10063579;28;20080;-66
2022/07/07 02:03:14;;;;;;;4.72;4.32;;;;;;;;;;10050051;28;20107;-66
2022/07/07 02:08:08;;;;;;;5.82;4.85;;;;;;;;;;10071031;28;20056;-66
2022/07/07 02:13:01;;;;;;;16.23;7.45;;;;;;;;;;10070775;28;20045;-67
2022/07/07 02:17:56;;;;;;;10.88;4.57;;;;;;;;;;10071145;28;20111;-67
2022/07/07 02:22:50;;;;;;;9.93;4.80;;;;;;;;;;10067919;28;20050;-66
2022/07/07 02:27:44;;;;;;;5.35;4.75;;;;;;;;;;10063615;28;20049;-66
2022/07/07 02:32:38;;;;;;;4.90;4.40;;;;;;;;;;10051729;28;20152;-66
2022/07/07 02:37:32;;;;;;;9.23;4.72;;;;;;;;;;10055846;28;20080;-66
2022/07/07 02:42:25;;;;;;;7.45;4.28;;;;;;;;;;10066687;28;20120;-66
2022/07/07 02:47:19;;;;;;;7.03;4.72;;;;;;;;;;10068079;28;20050;-66
2022/07/07 02:52:13;;;;;;;5.60;4.90;;;;;;;;;;10061202;28;20055;-66
2022/07/07 02:57:08;;;;;;;6.10;5.55;;;;;;;;;;10061020;28;20068;-66
2022/07/07 03:02:03;;;;;;;8.43;5.57;;;;;;;;;;10066457;28;20051;-66
2022/07/07 03:06:57;;;;;;;9.77;6.82;;;;;;;;;;10074767;28;20096;-66
2022/07/07 03:11:52;;;;;;;9.07;7.50;;;;;;;;;;10055894;28;20048;-66
2022/07/07 03:16:46;;;;;;;7.53;6.82;;;;;;;;;;10065658;28;20080;-66
2022/07/07 03:21:41;;;;;;;13.82;8.13;;;;;;;;;;10065783;28;20056;-66
2022/07/07 03:26:35;;;;;;;9.82;7.53;;;;;;;;;;10057285;28;20547;-66
2022/07/07 03:31:30;;;;;;;17.33;9.40;;;;;;;;;;10059642;28;20058;-66
2022/07/07 03:36:24;;;;;;;11.55;7.53;;;;;;;;;;10058904;28;20230;-66
2022/07/07 03:41:19;;;;;;;8.18;7.40;;;;;;;;;;10064218;28;20140;-66
2022/07/07 03:46:13;;;;;;;10.50;8.32;;;;;;;;;;10066898;28;20133;-66
2022/07/07 03:51:09;;;;;;;9.77;8.73;;;;;;;;;;10051536;28;20053;-66
2022/07/07 03:56:06;;;;;;;13.80;8.80;;;;;;;;;;10063379;28;20128;-68
2022/07/07 04:01:03;;;;;;;9.77;8.70;;;;;;;;;;10064031;28;20089;-68
2022/07/07 04:05:57;;;;;;;9.88;8.88;;;;;;;;;;10060082;28;20117;-68
2022/07/07 04:10:51;;;;;;;11.68;8.10;;;;;;;;;;10056530;28;20497;-68
2022/07/07 04:15:45;;;;;;;14.07;7.38;;;;;;;;;;10061717;28;20049;-68
2022/07/07 04:20:39;;;;;;;9.55;6.15;;;;;;;;;;10058732;28;20136;-68
2022/07/07 04:25:33;;;;;;;10.60;8.73;;;;;;;;;;10063519;28;20057;-68
2022/07/07 04:30:27;;;;;;;10.43;8.82;;;;;;;;;;10056378;28;20052;-68
2022/07/07 04:35:21;;;;;;;9.77;8.88;;;;;;;;;;10064647;28;20049;-68
2022/07/07 04:40:15;;;;;;;16.88;9.30;;;;;;;;;;10060342;28;20061;-67
2022/07/07 04:45:11;;;;;;;11.43;8.10;;;;;;;;;;10062254;28;20042;-68
2022/07/07 04:50:10;;;;;;;11.65;9.15;;;;;;;;;;10050832;28;20046;-68
2022/07/07 04:55:06;;;;;;;9.77;8.75;;;;;;;;;;10052497;28;20453;-68
2022/07/07 05:00:00;;;;;;;9.48;8.65;;;;;;;;;;10050568;28;20128;-68
2022/07/07 05:04:54;;;;;;;12.00;8.95;;;;;;;;;;10048310;28;20049;-68
2022/07/07 05:09:48;;;;;;;13.57;10.07;;;;;;;;;;10056289;28;20046;-68
2022/07/07 05:14:43;;;;;;;12.63;10.57;;;;;;;;;;10036914;28;20053;-69
2022/07/07 05:19:37;;;;;;;14.70;12.05;;;;;;;;;;10056797;28;20073;-68
2022/07/07 05:24:30;;;;;;;19.92;14.98;;;;;;;;;;10070276;28;20124;-68
2022/07/07 05:29:25;;;;;;;17.38;14.38;;;;;;;;;;10061719;28;20220;-68
2022/07/07 05:34:19;;;;;;;19.73;14.05;;;;;;;;;;10058317;28;20073;-68
2022/07/07 05:39:13;;;;;;;20.33;15.98;;;;;;;;;;10065812;28;20057;-68
2022/07/07 05:44:08;;;;;;;24.48;17.65;;;;;;;;;;10046126;28;20479;-69
2022/07/07 05:49:02;;;;;;;20.73;17.13;;;;;;;;;;10058296;28;20057;-68
2022/07/07 05:53:57;;;;;;;20.13;16.40;;;;;;;;;;10068680;28;20049;-69
2022/07/07 05:58:51;;;;;;;23.58;16.23;;;;;;;;;;10066032;28;20061;-69
2022/07/07 06:03:45;;;;;;;22.90;13.63;;;;;;;;;;10057775;28;20060;-69
2022/07/07 06:08:39;;;;;;;17.95;14.27;;;;;;;;;;10042704;28;20076;-67
2022/07/07 06:13:33;;;;;;;15.50;12.63;;;;;;;;;;10055394;28;20080;-68
2022/07/07 06:18:27;;;;;;;20.70;12.30;;;;;;;;;;10068715;28;20148;-68
2022/07/07 06:23:21;;;;;;;15.07;10.38;;;;;;;;;;10066338;28;20037;-67
2022/07/07 06:28:16;;;;;;;17.23;10.93;;;;;;;;;;10063272;28;20416;-67
2022/07/07 06:33:13;;;;;;;13.57;9.48;;;;;;;;;;10052161;28;20128;-65
2022/07/07 06:38:07;;;;;;;19.38;9.82;;;;;;;;;;10066093;28;20045;-65
2022/07/07 06:43:01;;;;;;;12.45;10.35;;;;;;;;;;10055315;28;20116;-66
2022/07/07 06:47:56;;;;;;;13.43;9.63;;;;;;;;;;10064330;28;20080;-66
2022/07/07 06:52:49;;;;;;;9.05;8.00;;;;;;;;;;10050803;28;20099;-64
2022/07/07 06:57:44;;;;;;;19.83;8.55;;;;;;;;;;10049209;28;20448;-63
2022/07/07 07:02:43;;;;;;;8.25;7.13;;;;;;;;;;10053089;28;20049;-64
2022/07/07 07:07:39;;;;;;;11.77;8.57;;;;;;;;;;10048429;28;20054;-63
2022/07/07 07:12:33;;;;;;;7.38;6.65;;;;;;;;;;10053998;28;20133;-63
2022/07/07 07:17:28;;;;;;;13.40;7.57;;;;;;;;;;10058044;28;20073;-63
2022/07/07 07:22:22;;;;;;;10.07;6.85;;;;;;;;;;10057426;28;20056;-63
2022/07/07 07:27:16;;;;;;;8.88;6.28;;;;;;;;;;10053141;28;20058;-64
2022/07/07 07:32:10;;;;;;;8.43;6.60;;;;;;;;;;10062209;28;20045;-65
2022/07/07 07:37:05;;;;;;;9.93;5.97;;;;;;;;;;10063487;28;20052;-64
2022/07/07 07:41:59;;;;;;;6.28;5.68;;;;;;;;;;10048875;28;20382;-64
2022/07/07 07:46:53;;;;;;;8.35;5.68;;;;;;;;;;10060428;28;20107;-64
2022/07/07 07:51:48;;;;;;;11.00;5.75;;;;;;;;;;10058712;28;20049;-64
2022/07/07 07:56:42;;;;;;;7.78;5.90;;;;;;;;;;10050032;28;20066;-64
2022/07/07 08:01:36;;;;;;;11.10;6.55;;;;;;;;;;10057350;28;20052;-65
2022/07/07 08:06:31;;;;;;;7.47;4.93;;;;;;;;;;10057873;28;20060;-63
2022/07/07 08:11:24;;;;;;;6.30;4.80;;;;;;;;;;10063463;28;20049;-63
2022/07/07 08:16:19;;;;;;;7.90;4.80;;;;;;;;;;10062699;28;20053;-63
2022/07/07 08:21:15;;;;;;;6.18;5.57;;;;;;;;;;10060986;28;20091;-65
2022/07/07 08:26:09;;;;;;;7.93;4.47;;;;;;;;;;10062976;28;20493;-65
2022/07/07 08:31:06;;;;;;;8.75;5.45;;;;;;;;;;10058631;28;20057;-65
2022/07/07 08:36:04;;;;;;;7.35;3.97;;;;;;;;;;10063541;28;20128;-64
2022/07/07 08:40:58;;;;;;;6.22;5.35;;;;;;;;;;10071435;28;20069;-64
2022/07/07 08:45:53;;;;;;;8.55;4.25;;;;;;;;;;10059394;28;20400;-63
2022/07/07 08:50:47;;;;;;;6.47;3.97;;;;;;;;;;10057645;28;20056;-64
2022/07/07 08:55:42;;;;;;;4.25;3.13;;;;;;;;;;10055618;28;20392;-64
2022/07/07 09:00:37;;;;;;;7.68;4.68;;;;;;;;;;10061720;28;20053;-65
2022/07/07 09:05:37;;;;;;;8.35;3.38;;;;;;;;;;10057816;28;20045;-64
2022/07/07 09:10:37;;;;;;;5.43;3.10;;;;;;;;;;10068511;28;20075;-64
2022/07/07 09:15:39;;;;;;;9.85;4.25;;;;;;;;;;10065090;28;20096;-64
2022/07/07 09:20:36;;;;;;;10.15;3.50;;;;;;;;;;10050429;28;20069;-64
2022/07/07 09:25:31;;;;;;;6.07;4.38;;;;;;;;;;10048750;28;20053;-65
2022/07/07 09:30:41;;;;;;;6.28;3.58;;;;;;;;;;10070673;28;20131;-67
2022/07/07 09:41:12;;;;;;;7.63;3.30;;;;;;;;;;10054578;28;20496;-66
2022/07/07 09:46:41;;;;;;;5.95;2.83;;;;;;;;;;10061200;28;20054;-66
2022/07/07 09:51:35;;;;;;;9.20;3.00;;;;;;;;;;10067800;28;20508;-67
2022/07/07 09:56:34;;;;;;;5.38;2.83;;;;;;;;;;10060914;28;20057;-67
2022/07/07 10:01:30;;;;;;;5.88;3.03;;;;;;;;;;10064994;28;20054;-66
2022/07/07 10:06:27;;;;;;;6.05;2.80;;;;;;;;;;10062485;28;20079;-65
2022/07/07 10:11:23;;;;;;;7.38;2.92;;;;;;;;;;10065866;28;20452;-66
2022/07/07 10:16:16;;;;;;;4.22;2.60;;;;;;;;;;10064158;28;20465;-67
2022/07/07 10:21:16;;;;;;;3.08;2.65;;;;;;;;;;10060509;28;20064;-67
2022/07/07 10:26:12;;;;;;;5.00;2.65;;;;;;;;;;10061040;28;20049;-66
2022/07/07 10:31:37;;;;;;;6.00;2.85;;;;;;;;;;10066646;28;20050;-66
2022/07/07 10:37:07;;;;;;;8.65;2.83;;;;;;;;;;9982961;28;20061;-67
2022/07/07 10:42:04;;;;;;;7.85;2.80;;;;;;;;;;10042013;28;20051;-67
2022/07/07 10:47:12;;;;;;;5.38;2.75;;;;;;;;;;10063081;28;20049;-67
2022/07/07 10:52:21;;;;;;;5.60;2.33;;;;;;;;;;10064854;28;20065;-66
2022/07/07 10:57:25;;;;;;;9.20;3.03;;;;;;;;;;10062181;28;20535;-67
2022/07/07 11:02:29;;;;;;;3.53;2.45;;;;;;;;;;10042070;28;20057;-67
2022/07/07 11:07:26;;;;;;;4.65;2.42;;;;;;;;;;10046805;28;20050;-67
2022/07/07 11:12:45;;;;;;;5.37;3.23;;;;;;;;;;10057040;28;20060;-67
2022/07/07 11:17:39;;;;;;;7.25;3.25;;;;;;;;;;10070619;28;20486;-68
2022/07/07 11:23:08;;;;;;;4.93;2.30;;;;;;;;;;10044736;28;20049;-68
2022/07/07 11:28:04;;;;;;;4.25;3.03;;;;;;;;;;10045891;28;20077;-68
2022/07/07 11:33:00;;;;;;;2.87;2.27;;;;;;;;;;10058311;28;20428;-67
2022/07/07 11:37:54;;;;;;;6.40;2.55;;;;;;;;;;10050703;28;20099;-67
2022/07/07 11:42:49;;;;;;;6.68;2.85;;;;;;;;;;10056526;28;20074;-67
2022/07/07 11:47:43;;;;;;;6.10;2.05;;;;;;;;;;10052943;28;20046;-67
2022/07/07 11:52:37;;;;;;;4.80;2.35;;;;;;;;;;10052901;28;20053;-67
2022/07/07 11:57:34;;;;;;;3.78;2.50;;;;;;;;;;10048702;28;20417;-68
2022/07/07 12:02:32;;;;;;;3.22;2.67;;;;;;;;;;10052820;28;20504;-68
2022/07/07 12:07:26;;;;;;;5.05;2.53;;;;;;;;;;10059832;28;20447;-68
2022/07/07 12:12:19;;;;;;;10.98;2.40;;;;;;;;;;10058972;28;20053;-68
2022/07/07 12:17:14;;;;;;;6.75;2.10;;;;;;;;;;10059566;28;20052;-68
2022/07/07 12:22:12;;;;;;;2.63;2.03;;;;;;;;;;10063530;28;20053;-68
2022/07/07 12:27:19;;;;;;;4.88;2.00;;;;;;;;;;10047079;28;20550;-68
2022/07/07 12:32:30;;;;;;;3.63;2.38;;;;;;;;;;10056820;28;20053;-68
2022/07/07 12:37:45;;;;;;;3.50;2.22;;;;;;;;;;10063774;28;20045;-68
2022/07/07 12:42:42;;;;;;;4.47;2.75;;;;;;;;;;10064222;28;20057;-68
2022/07/07 12:47:43;;;;;;;4.30;1.90;;;;;;;;;;10072466;28;20053;-68
2022/07/07 12:52:37;;;;;;;4.53;2.28;;;;;;;;;;10072038;28;20083;-68
2022/07/07 12:57:31;;;;;;;4.68;2.13;;;;;;;;;;10069462;28;20065;-68
2022/07/07 13:02:25;;;;;;;9.93;2.35;;;;;;;;;;10069988;28;20575;-69
2022/07/07 13:07:19;;;;;;;7.93;2.22;;;;;;;;;;10069899;28;20041;-68
2022/07/07 13:12:15;;;;;;;4.45;1.80;;;;;;;;;;10066368;28;20048;-68
2022/07/07 13:17:17;;;;;;;3.30;1.95;;;;;;;;;;10069181;28;20095;-68
2022/07/07 13:22:11;;;;;;;4.25;2.03;;;;;;;;;;10067206;28;20112;-68
2022/07/07 13:27:05;;;;;;;3.92;1.80;;;;;;;;;;10068449;28;20115;-67
2022/07/07 13:31:59;;;;;;;6.18;1.88;;;;;;;;;;10069476;28;20041;-68
2022/07/07 13:36:53;;;;;;;12.13;2.00;;;;;;;;;;10068620;28;20037;-67
2022/07/07 13:41:47;;;;;;;3.92;1.65;;;;;;;;;;10068199;28;20492;-67
2022/07/07 13:47:01;;;;;;;4.90;2.10;;;;;;;;;;10069156;28;20053;-68
2022/07/07 13:51:56;;;;;;;4.72;1.65;;;;;;;;;;10067550;28;20437;-67
2022/07/07 13:57:07;;;;;;;2.85;1.58;;;;;;;;;;10067677;28;20057;-68
2022/07/07 14:02:00;;;;;;;3.95;2.30;;;;;;;;;;10065632;28;20095;-68
2022/07/07 14:06:53;;;;;;;3.47;1.45;;;;;;;;;;10068231;28;20083;-68
2022/07/07 14:11:47;;;;;;;4.28;1.45;;;;;;;;;;10068273;28;20038;-68
2022/07/07 14:16:41;;;;;;;3.28;1.70;;;;;;;;;;10067042;28;20107;-67
2022/07/07 14:21:34;;;;;;;5.70;1.23;;;;;;;;;;10065594;28;20062;-66
2022/07/07 14:26:28;;;;;;;3.33;1.27;;;;;;;;;;10067801;28;20048;-65
2022/07/07 14:31:22;;;;;;;5.85;1.80;;;;;;;;;;10067422;28;20050;-63
2022/07/07 14:36:16;;;;;;;4.30;1.60;;;;;;;;;;10067589;28;20068;-63
2022/07/07 14:41:09;;;;;;;3.42;1.50;;;;;;;;;;10066660;28;20045;-63
2022/07/07 14:46:04;;;;;;;4.95;1.33;;;;;;;;;;10067102;28;20048;-63
2022/07/07 14:50:59;;;;;;;5.03;1.52;;;;;;;;;;10067208;28;20107;-63
2022/07/07 14:55:53;;;;;;;7.47;1.77;;;;;;;;;;10067981;28;20496;-63
2022/07/07 15:00:56;;;;;;;3.08;2.00;;;;;;;;;;10065592;28;20061;-63
2022/07/07 15:05:50;;;;;;;4.30;1.77;;;;;;;;;;10066151;28;20049;-63
2022/07/07 15:10:43;;;;;;;3.42;1.58;;;;;;;;;;10066360;28;20052;-64
2022/07/07 15:15:37;;;;;;;4.85;1.98;;;;;;;;;;10064887;28;20053;-64
2022/07/07 15:20:31;;;;;;;2.42;1.90;;;;;;;;;;10080005;28;20053;-63
2022/07/07 15:25:27;;;;;;;5.13;2.42;;;;;;;;;;10063506;28;20143;-63
2022/07/07 15:30:22;;;;;;;4.25;1.70;;;;;;;;;;10062664;28;20050;-63
2022/07/07 15:35:16;;;;;;;5.57;1.92;;;;;;;;;;10063147;28;20077;-63
2022/07/07 15:40:11;;;;;;;2.50;1.58;;;;;;;;;;10064925;28;20457;-63
2022/07/07 15:45:07;;;;;;;3.38;1.50;;;;;;;;;;10067132;28;20064;-63
2022/07/07 15:50:02;;;;;;;3.92;1.67;;;;;;;;;;10066688;28;20061;-63
2022/07/07 15:54:55;;;;;;;6.50;2.20;;;;;;;;;;10067038;28;20136;-63
2022/07/07 15:59:50;;;;;;;4.55;1.73;;;;;;;;;;10065840;28;20053;-63
2022/07/07 16:04:44;;;;;;;3.97;1.55;;;;;;;;;;10065623;28;20132;-63
2022/07/07 16:09:39;;;;;;;3.88;1.75;;;;;;;;;;10065865;28;20080;-63
2022/07/07 16:14:34;;;;;;;4.05;2.05;;;;;;;;;;10066232;28;20103;-63
2022/07/07 16:19:28;;;;;;;3.60;1.77;;;;;;;;;;10065839;28;20041;-63
2022/07/07 16:24:22;;;;;;;2.30;1.50;;;;;;;;;;10061309;28;20065;-64
2022/07/07 16:29:16;;;;;;;4.20;2.08;;;;;;;;;;10056259;28;20054;-64
2022/07/07 16:34:11;;;;;;;8.88;2.88;;;;;;;;;;10059830;28;20224;-65
2022/07/07 16:39:10;;;;;;;1.92;1.58;;;;;;;;;;10061867;28;20053;-65
2022/07/07 16:44:04;;;;;;;3.15;1.65;;;;;;;;;;10060304;28;20045;-64
2022/07/07 16:48:58;;;;;;;4.07;2.17;;;;;;;;;;10065999;28;20468;-65
2022/07/07 16:53:52;;;;;;;5.78;1.98;;;;;;;;;;10061296;28;20404;-64
2022/07/07 16:58:54;;;;;;;5.18;1.70;;;;;;;;;;10057585;28;20135;-64
2022/07/07 17:03:48;;;;;;;4.88;2.00;;;;;;;;;;10062666;28;20049;-64
2022/07/07 17:08:42;;;;;;;3.72;1.80;;;;;;;;;;10064154;28;20419;-65
2022/07/07 17:13:37;;;;;;;3.75;2.13;;;;;;;;;;10059682;28;20050;-64
2022/07/07 17:18:33;;;;;;;8.30;2.40;;;;;;;;;;10066624;28;20467;-64
2022/07/07 17:23:27;;;;;;;10.63;2.83;;;;;;;;;;10073391;28;20067;-64
2022/07/07 17:28:22;;;;;;;6.13;2.00;;;;;;;;;;10068532;28;20069;-64
2022/07/07 17:33:15;;;;;;;7.38;2.85;;;;;;;;;;10063225;28;20107;-64
2022/07/07 17:38:09;;;;;;;4.93;2.40;;;;;;;;;;10063550;28;20041;-64
2022/07/07 17:43:05;;;;;;;4.75;2.20;;;;;;;;;;10054861;28;20049;-64
2022/07/07 17:47:59;;;;;;;8.05;2.58;;;;;;;;;;10071751;28;20406;-64
2022/07/07 17:52:55;;;;;;;5.57;2.20;;;;;;;;;;10067759;28;20049;-63
2022/07/07 17:57:49;;;;;;;8.90;2.05;;;;;;;;;;10071061;28;20065;-64
2022/07/07 18:02:43;;;;;;;9.90;2.80;;;;;;;;;;10071260;28;20527;-64
2022/07/07 18:07:38;;;;;;;7.20;2.70;;;;;;;;;;10068024;28;20057;-64
2022/07/07 18:12:32;;;;;;;24.70;3.40;;;;;;;;;;10067081;28;20428;-64
2022/07/07 18:17:25;;;;;;;6.40;2.50;;;;;;;;;;10070363;28;20115;-63
2022/07/07 18:22:19;;;;;;;10.95;2.75;;;;;;;;;;10066476;28;20049;-64
2022/07/07 18:27:13;;;;;;;9.43;2.42;;;;;;;;;;10064476;28;20049;-61
2022/07/07 18:32:09;;;;;;;8.77;3.28;;;;;;;;;;10063098;28;20053;-61
2022/07/07 18:37:05;;;;;;;5.93;1.95;;;;;;;;;;10066063;28;20488;-61
2022/07/07 18:42:02;;;;;;;6.55;2.28;;;;;;;;;;10065900;28;20041;-62
2022/07/07 18:46:56;;;;;;;5.00;1.98;;;;;;;;;;10066774;28;20072;-64
2022/07/07 18:51:50;;;;;;;8.10;1.92;;;;;;;;;;10066207;28;20046;-65
2022/07/07 18:56:46;;;;;;;6.65;2.22;;;;;;;;;;10065352;28;20084;-65
2022/07/07 19:01:42;;;;;;;5.35;2.10;;;;;;;;;;10062652;28;20496;-66
2022/07/07 19:06:38;;;;;;;4.35;2.28;;;;;;;;;;10058094;28;20049;-69
2022/07/07 19:11:32;;;;;;;2.75;2.20;;;;;;;;;;10057478;28;20041;-66
2022/07/07 19:16:25;;;;;;;4.38;2.47;;;;;;;;;;10060639;28;20073;-66
2022/07/07 19:21:19;;;;;;;74.13;8.90;;;;;;;;;;10060035;28;20045;-68
2022/07/07 19:26:13;;;;;;;12.48;3.20;;;;;;;;;;10058004;28;20045;-65
2022/07/07 19:31:07;;;;;;;9.07;3.67;;;;;;;;;;10058963;28;20068;-67
2022/07/07 19:36:02;;;;;;;12.45;2.65;;;;;;;;;;10059691;28;20049;-66
2022/07/07 19:40:55;;;;;;;14.13;3.67;;;;;;;;;;10062384;28;20488;-66
2022/07/07 19:45:49;;;;;;;7.80;2.30;;;;;;;;;;10072504;28;20056;-67
2022/07/07 19:50:43;;;;;;;6.28;3.97;;;;;;;;;;10061798;28;20079;-66
2022/07/07 19:55:37;;;;;;;7.13;2.50;;;;;;;;;;10062077;28;20085;-67
2022/07/07 20:00:30;;;;;;;5.32;2.60;;;;;;;;;;10061914;28;20121;-60
2022/07/07 20:05:25;;;;;;;4.20;2.90;;;;;;;;;;10063072;28;20100;-62
2022/07/07 20:10:24;;;;;;;5.10;3.53;;;;;;;;;;10060931;28;20080;-61
2022/07/07 20:15:21;;;;;;;12.63;4.18;;;;;;;;;;10063405;28;20045;-61
2022/07/07 20:20:15;;;;;;;8.88;3.83;;;;;;;;;;10058766;28;20484;-61
2022/07/07 20:25:09;;;;;;;8.25;4.10;;;;;;;;;;10061721;28;20029;-61
2022/07/07 20:30:06;;;;;;;8.35;4.25;;;;;;;;;;10059093;28;20057;-61
2022/07/07 20:35:00;;;;;;;8.27;3.40;;;;;;;;;;10050855;28;20033;-61
2022/07/07 20:39:55;;;;;;;8.35;3.13;;;;;;;;;;10033173;28;20049;-61
2022/07/07 20:44:48;;;;;;;3.60;2.35;;;;;;;;;;10031964;28;20057;-61
2022/07/07 20:49:42;;;;;;;6.85;2.08;;;;;;;;;;10046806;28;20108;-61
2022/07/07 20:54:37;;;;;;;6.25;2.20;;;;;;;;;;10046081;28;20400;-61
2022/07/07 20:59:32;;;;;;;4.90;2.42;;;;;;;;;;10056580;28;20050;-60
2022/07/07 21:04:28;;;;;;;1.80;1.70;;;;;;;;;;10066436;28;20049;-61
2022/07/07 21:09:22;;;;;;;3.28;2.00;;;;;;;;;;10066763;28;20050;-61
2022/07/07 21:14:16;;;;;;;5.03;1.70;;;;;;;;;;10061795;28;20061;-61
2022/07/07 21:19:10;;;;;;;6.43;1.80;;;;;;;;;;10072559;28;20050;-60
2022/07/07 21:24:03;;;;;;;3.55;1.92;;;;;;;;;;10071845;28;20053;-61
2022/07/07 21:28:56;;;;;;;3.38;1.95;;;;;;;;;;10067070;28;20096;-61
2022/07/07 21:33:50;;;;;;;9.00;3.15;;;;;;;;;;10069364;28;20107;-61
2022/07/07 21:38:44;;;;;;;5.13;2.90;;;;;;;;;;10064359;28;20061;-61
2022/07/07 21:43:37;;;;;;;2.75;2.28;;;;;;;;;;10070421;28;20152;-62
2022/07/07 21:48:31;;;;;;;2.85;2.55;;;;;;;;;;10059687;28;20049;-62
2022/07/07 21:53:24;;;;;;;4.25;2.35;;;;;;;;;;10064949;28;20484;-61
2022/07/07 21:58:18;;;;;;;6.60;2.60;;;;;;;;;;10062632;28;20061;-61
2022/07/07 22:03:12;;;;;;;3.28;2.60;;;;;;;;;;10062956;28;20053;-62
2022/07/07 22:08:06;;;;;;;3.30;3.00;;;;;;;;;;10067563;28;20054;-62
2022/07/07 22:13:00;;;;;;;4.28;3.08;;;;;;;;;;10065119;28;20060;-61
2022/07/07 22:17:54;;;;;;;4.22;2.75;;;;;;;;;;10060049;28;20041;-62
2022/07/07 22:22:49;;;;;;;5.30;3.33;;;;;;;;;;10061947;28;20500;-61
2022/07/07 22:27:43;;;;;;;4.10;3.17;;;;;;;;;;10051643;28;20463;-61
2022/07/07 22:32:36;;;;;;;3.83;3.47;;;;;;;;;;10062104;28;20461;-62
2022/07/07 22:37:30;;;;;;;14.77;5.32;;;;;;;;;;10075499;28;20073;-61
2022/07/07 22:42:24;;;;;;;4.63;3.08;;;;;;;;;;10065874;28;20045;-61
2022/07/07 22:47:18;;;;;;;5.35;3.65;;;;;;;;;;10066539;28;20068;-62
2022/07/07 22:52:13;;;;;;;4.53;3.30;;;;;;;;;;10059627;28;20537;-61
2022/07/07 22:57:07;;;;;;;3.92;3.63;;;;;;;;;;10052868;28;20144;-61
2022/07/07 23:02:00;;;;;;;6.35;3.65;;;;;;;;;;10056430;28;20489;-61
2022/07/07 23:06:55;;;;;;;8.07;3.63;;;;;;;;;;10059175;28;20412;-61
2022/07/07 23:11:48;;;;;;;4.80;3.85;;;;;;;;;;10067931;28;20054;-61
2022/07/07 23:16:43;;;;;;;8.57;4.40;;;;;;;;;;10059319;28;20073;-61
2022/07/07 23:21:39;;;;;;;6.68;3.67;;;;;;;;;;10063517;28;20412;-61
2022/07/07 23:26:34;;;;;;;3.90;3.50;;;;;;;;;;10063061;28;20057;-61
2022/07/07 23:31:29;;;;;;;8.73;4.40;;;;;;;;;;10053434;28;20065;-61
2022/07/07 23:36:23;;;;;;;8.38;4.18;;;;;;;;;;10062026;28;20080;-61
2022/07/07 23:41:17;;;;;;;5.32;4.45;;;;;;;;;;10067564;28;20052;-62
2022/07/07 23:46:10;;;;;;;5.25;4.75;;;;;;;;;;10070399;28;20087;-61
2022/07/07 23:51:05;;;;;;;7.53;4.75;;;;;;;;;;10054534;28;20046;-61
2022/07/07 23:56:00;;;;;;;5.18;4.68;;;;;;;;;;10046981;28;20045;-61
